Port Charlotte, FL (33952)

2:43 AM EST on November 26, 2014 (GMT -0500)
41 @ MIDWAY | Change Station
CLOSE
Current Station
Personal Weather Station
Location: Port Charlotte, FL
Elevation: 16 ft
Nearby Weather Stations

Elev 16 ft 26.99 °N, 82.11 °W | Updated 4 minutes ago

Rain
Rain
70.5 °F
Feels Like 70.5 °F
N
1.0
Wind Variable Wind from SSW
Gusts 10.0 mph

Today
High -- | Low -- °F
--% Chance of Precip.
Yesterday
High -- | Low -- °F
Precip. -- in
6:56 AM 5:34 PM
Waxing Crescent, 17% visible
Pressure 29.92 in
Visibility 7.0 miles
Clouds Mostly Cloudy 600 ft
Mostly Cloudy 4200 ft
Dew Point 70 °F
Humidity 100%
Rainfall 0.30 in
Snow Depth Not available.
UV 0.0 out of 12
Pollen .50 out of 12
Air Quality Not available.
Flu Activity Not available.
SPECI KPGD 260727Z AUTO 20009KT 7SM -RA BKN006 BKN042 23/23 A2992 RMK AO2 LTG DSNT E AND S TSB06E21 P0004 T02330228

More Conditions Fewer Conditions

Pressure 29.92 in
Visibility 7.0 miles
Clouds Mostly Cloudy 600 ft
Mostly Cloudy 4200 ft
Dew Point 70 °F
Humidity 100%
Rainfall 0.30 in
Snow Depth Not available.
UV 0.0 out of 12
Pollen .50 out of 12
Air Quality Not available.
Flu Activity Not available.
SPECI KPGD 260727Z AUTO 20009KT 7SM -RA BKN006 BKN042 23/23 A2992 RMK AO2 LTG DSNT E AND S TSB06E21 P0004 T02330228

More Conditions Fewer Conditions

10-Day Weather Forecast

Almanac

Astronomy

Nov. 26, 2014 Rise Set
Actual Time
Civil Twilight
Nautical Twilight
Astronomical Twilight
Moon
Length of Visible Light
Length of Day
Tomorrow will be .
, % of the Moon is Illuminated

Today's Extremes

State Highs State Lows

Community

WunderPhotos

Upload Photos

1,773,694 photos uploaded!

WunderBlogs® & News

Nearby

Air Quality

  Air Quality AQ Index Pollutant
Not available.

Snow Depth

Station Depth Elevation

Earthquake Activity

City Distance Mag. Time & Date
Minimum magnitude displayed is 2.5.

Coastal Water Temperatures

Place Temperature

Nearby Weather Stations